Musquodoboit Harbour, Canada
Current Conditions -  °F | °C
As of 9:00 PM on Monday 20 Oct 2014 (Local Time) from CYHZ Reporting Station
Clear Clear  
Wind Chill: 33°   Ceiling: Unl
Heat Index: 41°   Visibility: 15mi
Dew Point: 34°   Wind: 14mph
Humidity: 76%   Direction: 250°WSW
Pressure: 29.92"   Gusts: NA
Location:  44.78°N, 63.15°W
Report Text: CYHZ 210000Z 25012KT 15SM SKC 05/01 A2992 RMK SLP138
Loading
Personal Weather Stations






























Interactive Weather Map
Tropical Storm Tracking
New forecast layout! Learn more

10-Day Weather Forecast

Advertisements
Track Severe Weather on mobile